Time;durP1;ratioP1;P1;durP2;ratioP2;P2;SDS_P1;SDS_P2;PMS_P1;PMS_P2;Temp;Humidity;BMP_temperature;BMP_pressure;BME280_temperature;BME280_humidity;BME280_pressure;Samples;Min_cycle;Max_cycle;Signal;HPM_P1;HPM_P2
2022/02/16 00:00:23;;;;;;;38.77;9.70;;;8.20;99.90;;;;;;6272849;22;20179;-79
2022/02/16 00:02:50;;;;;;;39.87;7.87;;;8.20;99.90;;;;;;6276029;22;20177;-79
2022/02/16 00:05:18;;;;;;;28.27;6.43;;;8.20;99.90;;;;;;6273523;22;20283;-79
2022/02/16 00:07:47;;;;;;;27.23;6.53;;;8.30;99.90;;;;;;6274614;22;20200;-79
2022/02/16 00:10:17;;;;;;;40.93;7.97;;;8.30;99.90;;;;;;6268371;22;20262;-79
2022/02/16 00:12:47;;;;;;;40.67;8.83;;;8.30;99.90;;;;;;6266088;22;20165;-80
2022/02/16 00:15:14;;;;;;;36.83;8.37;;;8.30;99.90;;;;;;6266436;22;20510;-78
2022/02/16 00:17:41;;;;;;;38.03;9.00;;;8.30;99.90;;;;;;6264945;22;20176;-79
2022/02/16 00:20:10;;;;;;;40.57;7.13;;;8.30;99.90;;;;;;6266083;22;20171;-79
2022/02/16 00:22:37;;;;;;;39.70;7.63;;;8.40;99.90;;;;;;6266479;22;20169;-78
2022/02/16 00:25:04;;;;;;;34.87;7.17;;;8.30;99.90;;;;;;6265525;22;20172;-81
2022/02/16 00:27:33;;;;;;;28.60;7.07;;;8.30;99.90;;;;;;6265161;22;20859;-79
2022/02/16 00:29:59;;;;;;;39.40;8.07;;;8.40;99.90;;;;;;6266040;22;20382;-79
2022/02/16 00:32:26;;;;;;;30.27;7.93;;;8.40;99.90;;;;;;6265597;22;20629;-80
2022/02/16 00:34:53;;;;;;;37.20;7.70;;;8.40;99.90;;;;;;6265847;22;20199;-78
2022/02/16 00:37:20;;;;;;;35.23;7.43;;;8.40;99.90;;;;;;6266260;22;20184;-79
2022/02/16 00:39:46;;;;;;;39.43;8.80;;;8.40;99.90;;;;;;6265994;22;20179;-80
2022/02/16 00:42:13;;;;;;;37.93;8.70;;;8.40;99.90;;;;;;6265196;22;20173;-81
2022/02/16 00:44:41;;;;;;;44.70;8.23;;;8.40;99.90;;;;;;6265660;22;20179;-79
2022/02/16 00:47:08;;;;;;;34.40;8.63;;;8.40;99.90;;;;;;6265747;22;20169;-79
2022/02/16 00:49:36;;;;;;;32.00;8.20;;;8.40;99.90;;;;;;6266513;22;20555;-79
2022/02/16 00:52:03;;;;;;;30.60;7.33;;;8.40;99.90;;;;;;6264413;22;20907;-79
2022/02/16 00:54:30;;;;;;;26.50;8.13;;;8.50;99.90;;;;;;6266950;22;20176;-81
2022/02/16 00:57:01;;;;;;;36.53;7.97;;;8.50;99.90;;;;;;6266686;22;20787;-80
2022/02/16 00:59:27;;;;;;;30.97;8.70;;;8.50;99.90;;;;;;6266478;22;20422;-80
2022/02/16 01:01:56;;;;;;;22.57;7.17;;;8.50;99.90;;;;;;6266637;22;20169;-80
2022/02/16 01:04:24;;;;;;;26.30;7.60;;;8.50;99.90;;;;;;6266444;22;20165;-80
2022/02/16 01:06:51;;;;;;;22.13;6.70;;;8.50;99.90;;;;;;6265378;22;20264;-80
2022/02/16 01:09:18;;;;;;;19.90;7.43;;;8.50;99.90;;;;;;6266450;22;20197;-80
2022/02/16 01:11:45;;;;;;;19.87;6.10;;;8.50;99.90;;;;;;6266050;22;20219;-80
2022/02/16 01:14:11;;;;;;;24.70;6.50;;;8.50;99.90;;;;;;6266319;22;20176;-80
2022/02/16 01:16:38;;;;;;;21.87;7.00;;;8.60;99.90;;;;;;6267409;22;20196;-81
2022/02/16 01:19:06;;;;;;;18.53;6.27;;;8.60;99.90;;;;;;6266715;22;20851;-81
2022/02/16 01:21:33;;;;;;;24.57;7.50;;;8.60;99.90;;;;;;6266774;22;20180;-81
2022/02/16 01:24:00;;;;;;;21.30;7.67;;;8.60;99.90;;;;;;6267490;22;20180;-80
2022/02/16 01:26:27;;;;;;;17.23;6.70;;;8.60;99.90;;;;;;6268307;22;20169;-81
2022/02/16 01:28:55;;;;;;;19.90;6.60;;;8.60;99.90;;;;;;6267481;22;20177;-82
2022/02/16 01:31:21;;;;;;;28.93;5.87;;;8.60;99.90;;;;;;6267473;22;20169;-81
2022/02/16 01:33:48;;;;;;;19.07;6.33;;;8.60;99.90;;;;;;6266769;22;20176;-81
2022/02/16 01:36:16;;;;;;;18.97;7.33;;;8.50;99.90;;;;;;6267400;22;20299;-82
2022/02/16 01:38:43;;;;;;;16.63;6.20;;;8.50;99.90;;;;;;6267278;22;20574;-82
2022/02/16 01:41:15;;;;;;;19.93;6.90;;;8.50;99.90;;;;;;6266511;22;20180;-81
2022/02/16 01:43:45;;;;;;;23.07;7.33;;;8.50;99.90;;;;;;6265684;22;20242;-81
2022/02/16 01:46:12;;;;;;;19.00;5.97;;;8.50;99.90;;;;;;6266858;22;20185;-82
2022/02/16 01:48:39;;;;;;;20.93;6.33;;;8.50;99.90;;;;;;6266961;22;20183;-79
2022/02/16 01:51:06;;;;;;;26.67;8.17;;;8.60;99.90;;;;;;6266203;22;20173;-80
2022/02/16 01:53:34;;;;;;;28.27;7.47;;;8.60;99.90;;;;;;6266745;22;20187;-80
2022/02/16 01:56:02;;;;;;;27.60;7.60;;;8.60;99.90;;;;;;6264988;22;20203;-81
2022/02/16 01:58:29;;;;;;;20.13;6.47;;;8.60;99.90;;;;;;6265941;22;20180;-79
2022/02/16 02:00:56;;;;;;;19.60;4.87;;;8.60;99.90;;;;;;6266805;22;20179;-80
2022/02/16 02:03:23;;;;;;;16.77;5.60;;;8.60;99.90;;;;;;6265702;22;20180;-82
2022/02/16 02:05:51;;;;;;;20.37;5.77;;;8.60;99.90;;;;;;6267363;22;20573;-83
2022/02/16 02:08:21;;;;;;;19.33;5.83;;;8.70;99.90;;;;;;6267019;22;20180;-81
2022/02/16 02:10:49;;;;;;;28.87;6.00;;;8.70;99.90;;;;;;6265323;22;20443;-81
2022/02/16 02:13:16;;;;;;;22.30;6.53;;;8.60;99.90;;;;;;6265690;22;20177;-81
2022/02/16 02:15:43;;;;;;;31.47;7.03;;;8.70;99.90;;;;;;6265238;22;20192;-82
2022/02/16 02:18:13;;;;;;;35.20;7.13;;;8.70;99.90;;;;;;6264998;22;20175;-81
2022/02/16 02:20:41;;;;;;;39.07;8.20;;;8.70;99.90;;;;;;6266721;22;20173;-81
2022/02/16 02:23:10;;;;;;;36.57;7.43;;;8.70;99.90;;;;;;6264171;22;20184;-81
2022/02/16 02:25:45;;;;;;;44.77;9.87;;;8.80;99.90;;;;;;6265357;22;20503;-80
2022/02/16 02:28:12;;;;;;;28.90;7.50;;;8.80;99.90;;;;;;6266337;22;20473;-80
2022/02/16 02:30:39;;;;;;;39.97;7.60;;;8.90;99.90;;;;;;6265572;22;20180;-80
2022/02/16 02:33:06;;;;;;;32.63;7.47;;;8.90;99.90;;;;;;6265684;22;20181;-80
2022/02/16 02:35:33;;;;;;;38.90;8.20;;;8.90;99.90;;;;;;6265012;22;20192;-80
2022/02/16 02:38:01;;;;;;;41.67;8.53;;;8.90;99.90;;;;;;6264293;22;20164;-78
2022/02/16 02:40:28;;;;;;;33.70;7.60;;;8.90;99.90;;;;;;6265675;22;20233;-79
2022/02/16 02:42:55;;;;;;;37.27;8.57;;;8.90;99.90;;;;;;6265317;22;20180;-80
2022/02/16 02:45:22;;;;;;;40.53;9.10;;;8.90;99.90;;;;;;6264734;22;20184;-83
2022/02/16 02:47:48;;;;;;;44.50;9.30;;;8.90;99.90;;;;;;6265535;22;20172;-81
2022/02/16 02:50:15;;;;;;;31.53;7.47;;;8.90;99.90;;;;;;6265293;22;20176;-80
2022/02/16 02:52:42;;;;;;;42.57;8.93;;;8.90;99.90;;;;;;6264379;22;20177;-82
2022/02/16 02:55:13;;;;;;;33.67;8.43;;;8.90;99.90;;;;;;6265208;22;20164;-81
2022/02/16 02:57:40;;;;;;;37.13;9.63;;;8.90;99.90;;;;;;6267355;22;20169;-80
2022/02/16 03:00:10;;;;;;;44.27;9.00;;;8.90;99.90;;;;;;6266617;22;20176;-80
2022/02/16 03:02:37;;;;;;;37.23;7.77;;;8.90;99.90;;;;;;6268668;22;20570;-80
2022/02/16 03:05:05;;;;;;;37.47;9.17;;;8.90;99.90;;;;;;6266378;22;20184;-79
2022/02/16 03:07:32;;;;;;;32.07;7.90;;;8.90;99.90;;;;;;6266772;22;20183;-81
2022/02/16 03:09:59;;;;;;;35.50;8.20;;;9.00;99.90;;;;;;6266755;22;20475;-79
2022/02/16 03:12:27;;;;;;;31.57;7.47;;;9.00;99.90;;;;;;6267075;22;20165;-80
2022/02/16 03:14:54;;;;;;;37.60;8.33;;;9.00;99.90;;;;;;6267353;22;20172;-79
2022/02/16 03:17:21;;;;;;;31.50;8.77;;;9.00;99.90;;;;;;6266960;22;20737;-80
2022/02/16 03:19:47;;;;;;;38.43;8.27;;;9.00;99.90;;;;;;6266190;22;20160;-80
2022/02/16 03:22:14;;;;;;;31.90;7.50;;;9.00;99.90;;;;;;6267235;22;20168;-82
2022/02/16 03:24:41;;;;;;;32.17;7.70;;;9.00;99.90;;;;;;6266347;22;20520;-83
2022/02/16 03:27:08;;;;;;;37.23;7.67;;;9.10;99.90;;;;;;6267420;22;20175;-81
2022/02/16 03:29:36;;;;;;;34.60;7.93;;;9.00;99.90;;;;;;6268318;22;20571;-81
2022/02/16 03:32:03;;;;;;;22.37;6.80;;;9.00;99.90;;;;;;6267780;22;20760;-81
2022/02/16 03:34:30;;;;;;;36.70;8.20;;;9.00;99.90;;;;;;6268123;22;20465;-82
2022/02/16 03:36:57;;;;;;;27.97;7.60;;;9.00;99.90;;;;;;6268721;22;20192;-81
2022/02/16 03:39:23;;;;;;;25.50;7.90;;;9.00;99.90;;;;;;6268661;22;20176;-81
2022/02/16 03:41:50;;;;;;;19.43;7.03;;;9.00;99.90;;;;;;6268382;22;20172;-81
2022/02/16 03:44:17;;;;;;;27.37;8.83;;;9.00;99.90;;;;;;6267600;22;20161;-81
2022/02/16 03:46:46;;;;;;;24.33;7.33;;;9.00;99.90;;;;;;6265779;22;20164;-80
2022/02/16 03:49:14;;;;;;;22.97;8.03;;;9.10;99.90;;;;;;6267377;22;20964;-79
2022/02/16 03:51:40;;;;;;;21.30;7.40;;;9.10;99.90;;;;;;6267380;22;20483;-81
2022/02/16 03:54:07;;;;;;;20.73;8.13;;;9.00;99.90;;;;;;6267486;22;20173;-80
2022/02/16 03:56:34;;;;;;;21.40;7.87;;;9.10;99.90;;;;;;6267135;22;20660;-79
2022/02/16 03:59:01;;;;;;;24.47;7.47;;;9.10;99.90;;;;;;6266297;22;20168;-79
2022/02/16 04:01:28;;;;;;;26.20;6.47;;;9.10;99.90;;;;;;6266917;22;20169;-80
2022/02/16 04:03:56;;;;;;;19.23;6.63;;;9.10;99.90;;;;;;6266794;22;20172;-80
2022/02/16 04:06:23;;;;;;;17.53;4.97;;;9.10;99.90;;;;;;6267374;22;20173;-82
2022/02/16 04:08:50;;;;;;;15.80;4.47;;;9.00;99.90;;;;;;6267097;22;20185;-80
2022/02/16 04:11:20;;;;;;;18.57;5.03;;;9.00;99.90;;;;;;6267993;22;20204;-83
2022/02/16 04:13:47;;;;;;;15.27;3.97;;;9.00;99.90;;;;;;6268227;22;20250;-82
2022/02/16 04:16:14;;;;;;;18.27;4.63;;;9.10;99.90;;;;;;6267846;22;20200;-82
2022/02/16 04:18:41;;;;;;;12.97;3.93;;;9.10;99.90;;;;;;6267687;22;20877;-82
2022/02/16 04:21:09;;;;;;;14.00;3.60;;;9.10;99.90;;;;;;6268218;22;20475;-81
2022/02/16 04:23:35;;;;;;;12.10;4.17;;;9.00;99.90;;;;;;6267525;22;20176;-82
2022/02/16 04:26:02;;;;;;;20.10;4.37;;;9.10;99.90;;;;;;6269120;22;20374;-82
2022/02/16 04:28:29;;;;;;;26.60;4.80;;;9.10;99.90;;;;;;6269942;22;20588;-83
2022/02/16 04:30:56;;;;;;;13.47;4.07;;;9.00;99.90;;;;;;6269243;22;20167;-83
2022/02/16 04:33:23;;;;;;;10.63;4.07;;;9.10;99.90;;;;;;6268838;22;20187;-82
2022/02/16 04:35:49;;;;;;;10.33;3.43;;;9.00;99.90;;;;;;6269751;22;20215;-82
2022/02/16 04:38:17;;;;;;;10.63;3.80;;;9.10;99.90;;;;;;6268180;22;20529;-82
2022/02/16 04:40:44;;;;;;;7.83;3.27;;;9.10;99.90;;;;;;6269619;22;20176;-82
2022/02/16 04:43:12;;;;;;;8.97;3.90;;;9.00;99.90;;;;;;6270064;22;20443;-82
2022/02/16 04:45:39;;;;;;;8.50;3.33;;;9.00;99.90;;;;;;6269927;22;20176;-83
2022/02/16 04:48:06;;;;;;;9.13;3.70;;;9.00;99.90;;;;;;6270867;22;20180;-83
2022/02/16 04:50:33;;;;;;;8.80;3.33;;;9.00;99.90;;;;;;6269612;22;20179;-84
2022/02/16 04:53:00;;;;;;;5.23;3.37;;;9.00;99.90;;;;;;6268561;22;20169;-84
2022/02/16 04:55:29;;;;;;;8.50;4.47;;;9.10;99.90;;;;;;6269800;22;20169;-83
2022/02/16 04:57:56;;;;;;;7.13;4.00;;;9.10;99.90;;;;;;6268576;22;20197;-82
2022/02/16 05:00:25;;;;;;;4.27;3.77;;;9.10;99.90;;;;;;6268088;22;20620;-83
2022/02/16 05:02:52;;;;;;;5.63;4.37;;;9.10;99.90;;;;;;6269118;22;20172;-81
2022/02/16 05:05:19;;;;;;;7.27;4.50;;;9.10;99.90;;;;;;6267774;22;20175;-81
2022/02/16 05:07:46;;;;;;;9.40;5.50;;;9.20;99.90;;;;;;6268617;22;20169;-81
2022/02/16 05:10:12;;;;;;;5.80;5.10;;;9.20;99.90;;;;;;6267863;22;20207;-82
2022/02/16 05:12:41;;;;;;;5.77;5.23;;;9.30;99.90;;;;;;6268181;22;20173;-82
2022/02/16 05:15:08;;;;;;;4.97;4.57;;;9.30;99.90;;;;;;6269341;22;20200;-83
2022/02/16 05:17:35;;;;;;;5.70;5.20;;;9.30;99.90;;;;;;6268416;22;20200;-83
2022/02/16 05:20:02;;;;;;;5.37;4.50;;;9.40;99.90;;;;;;6265238;22;20176;-81
2022/02/16 05:22:29;;;;;;;5.03;4.27;;;9.40;99.90;;;;;;6268310;22;20172;-81
2022/02/16 05:24:56;;;;;;;5.53;4.30;;;9.40;99.90;;;;;;6267229;22;20169;-80
2022/02/16 05:27:23;;;;;;;4.50;4.10;;;9.40;99.90;;;;;;6268676;22;20176;-82
2022/02/16 05:29:51;;;;;;;5.07;3.93;;;9.40;99.90;;;;;;6269188;22;20183;-81
2022/02/16 05:32:17;;;;;;;4.50;4.10;;;9.50;99.90;;;;;;6268524;22;20497;-82
2022/02/16 05:34:44;;;;;;;5.57;4.33;;;9.50;99.90;;;;;;6267663;22;20173;-82
2022/02/16 05:37:11;;;;;;;4.77;4.13;;;9.50;99.90;;;;;;6268650;22;20200;-81
2022/02/16 05:39:38;;;;;;;4.77;3.50;;;9.60;99.90;;;;;;6268225;22;20180;-81
2022/02/16 05:42:05;;;;;;;3.70;3.20;;;9.60;99.90;;;;;;6267433;22;20774;-82
2022/02/16 05:44:32;;;;;;;2.87;2.53;;;9.70;99.90;;;;;;6267786;22;20169;-81
2022/02/16 05:47:00;;;;;;;2.83;2.63;;;9.70;99.90;;;;;;6267240;22;20187;-82
2022/02/16 05:49:27;;;;;;;2.50;2.10;;;9.80;99.90;;;;;;6268870;22;20183;-81
2022/02/16 05:51:56;;;;;;;3.57;2.10;;;9.80;99.90;;;;;;6270864;22;20232;-82
2022/02/16 05:54:23;;;;;;;4.33;2.23;;;9.80;99.90;;;;;;6273771;22;20339;-83
2022/02/16 05:56:50;;;;;;;2.13;1.93;;;9.90;99.90;;;;;;6271478;22;20211;-80
2022/02/16 05:59:17;;;;;;;3.43;2.23;;;9.90;99.90;;;;;;6269354;22;20203;-81
2022/02/16 06:01:43;;;;;;;4.87;2.20;;;9.90;99.90;;;;;;6266794;22;20176;-81
2022/02/16 06:04:15;;;;;;;4.83;3.00;;;9.90;99.90;;;;;;6265438;22;20177;-82
2022/02/16 06:06:42;;;;;;;7.93;3.37;;;10.00;99.90;;;;;;6267006;22;20765;-82
2022/02/16 06:09:09;;;;;;;5.83;3.07;;;10.00;99.90;;;;;;6269271;22;20180;-86
2022/02/16 06:11:36;;;;;;;6.47;2.57;;;10.00;99.90;;;;;;6270774;22;20215;-87
2022/02/16 06:14:03;;;;;;;4.87;2.27;;;9.90;99.90;;;;;;6271350;22;20207;-84
2022/02/16 06:16:29;;;;;;;7.60;2.60;;;9.90;99.90;;;;;;6269953;22;20195;-84
2022/02/16 06:18:56;;;;;;;8.30;2.40;;;9.90;99.90;;;;;;6270759;22;20169;-83
2022/02/16 06:21:24;;;;;;;14.83;3.60;;;9.90;99.90;;;;;;6267908;22;20176;-81
2022/02/16 06:23:51;;;;;;;7.17;2.93;;;9.90;99.90;;;;;;6267146;22;20169;-86
2022/02/16 06:26:18;;;;;;;8.73;2.63;;;9.90;99.90;;;;;;6268139;22;20177;-85
2022/02/16 06:28:45;;;;;;;11.57;2.50;;;9.90;99.90;;;;;;6270082;22;20176;-86
2022/02/16 06:31:12;;;;;;;10.97;3.20;;;9.90;99.90;;;;;;6268874;22;20192;-81
2022/02/16 06:33:39;;;;;;;10.13;2.37;;;9.90;99.90;;;;;;6269402;22;20169;-84
2022/02/16 06:36:06;;;;;;;9.80;2.87;;;9.90;99.90;;;;;;6269875;22;20176;-84
2022/02/16 06:38:34;;;;;;;9.37;2.33;;;9.90;99.90;;;;;;6269725;22;20168;-84
2022/02/16 06:41:01;;;;;;;11.77;2.30;;;9.90;99.90;;;;;;6270300;22;20176;-81
2022/02/16 06:43:28;;;;;;;15.63;4.00;;;9.90;99.90;;;;;;6270547;22;20445;-81
2022/02/16 06:45:55;;;;;;;12.23;3.00;;;9.90;99.90;;;;;;6268323;22;20172;-82
2022/02/16 06:48:22;;;;;;;18.87;3.77;;;9.80;99.90;;;;;;6268380;22;20538;-82
2022/02/16 06:50:49;;;;;;;16.53;3.60;;;9.80;99.90;;;;;;6266341;22;20175;-81
2022/02/16 06:53:16;;;;;;;15.93;3.97;;;9.80;99.90;;;;;;6266430;22;20179;-81
2022/02/16 06:55:44;;;;;;;24.20;4.30;;;9.80;99.90;;;;;;6268265;22;20176;-81
2022/02/16 06:58:11;;;;;;;20.97;4.90;;;9.80;99.90;;;;;;6267832;22;20189;-83
2022/02/16 07:00:40;;;;;;;24.13;4.67;;;9.80;99.90;;;;;;6267484;22;20547;-82
2022/02/16 07:03:07;;;;;;;22.03;5.17;;;9.80;99.90;;;;;;6269721;22;20632;-83
2022/02/16 07:05:34;;;;;;;27.20;7.13;;;9.70;99.90;;;;;;6269780;22;20176;-83
2022/02/16 07:08:00;;;;;;;26.10;6.90;;;9.70;99.90;;;;;;6268097;22;20164;-81
2022/02/16 07:10:27;;;;;;;27.23;9.03;;;9.70;99.90;;;;;;6268915;22;20197;-83
2022/02/16 07:12:55;;;;;;;32.00;7.60;;;9.70;99.90;;;;;;6269071;22;20176;-82
2022/02/16 07:15:22;;;;;;;32.33;7.37;;;9.70;99.90;;;;;;6268362;22;20549;-84
2022/02/16 07:17:49;;;;;;;21.63;6.93;;;9.70;99.90;;;;;;6269111;22;20276;-80
2022/02/16 07:20:17;;;;;;;37.23;7.97;;;9.70;99.90;;;;;;6268465;22;20599;-83
2022/02/16 07:22:46;;;;;;;31.47;8.43;;;9.70;99.90;;;;;;6269744;22;20169;-81
2022/02/16 07:25:13;;;;;;;27.50;7.30;;;9.70;99.90;;;;;;6269423;22;20169;-83
2022/02/16 07:27:40;;;;;;;35.23;10.50;;;9.80;99.90;;;;;;6268549;22;20169;-82
2022/02/16 07:30:11;;;;;;;36.03;8.70;;;9.80;99.90;;;;;;6270683;22;20264;-83
2022/02/16 07:32:39;;;;;;;32.90;7.43;;;9.80;99.90;;;;;;6270179;22;20211;-84
2022/02/16 07:35:07;;;;;;;35.33;8.27;;;9.80;99.90;;;;;;6269706;22;20554;-82
2022/02/16 07:37:35;;;;;;;45.07;9.20;;;9.80;99.90;;;;;;6269814;22;20201;-82
2022/02/16 07:40:06;;;;;;;35.90;8.90;;;9.80;99.90;;;;;;6267535;22;20187;-81
2022/02/16 07:42:33;;;;;;;38.87;9.53;;;9.90;99.90;;;;;;6268635;22;20211;-80
2022/02/16 07:45:02;;;;;;;38.10;8.00;;;9.90;99.90;;;;;;6269524;22;20437;-80
2022/02/16 07:47:31;;;;;;;34.27;8.67;;;10.00;99.90;;;;;;6267895;22;20561;-81
2022/02/16 07:49:58;;;;;;;38.63;7.47;;;10.00;99.90;;;;;;6267325;22;20587;-83
2022/02/16 07:52:25;;;;;;;42.13;8.43;;;10.00;99.90;;;;;;6268527;22;20587;-82
2022/02/16 07:54:53;;;;;;;35.13;7.30;;;10.10;99.90;;;;;;6197788;22;20477;-80
2022/02/16 07:57:20;;;;;;;33.87;7.23;;;10.10;99.90;;;;;;6269225;22;20188;-82
2022/02/16 07:59:47;;;;;;;31.73;7.23;;;10.20;99.90;;;;;;6269833;22;20176;-83
2022/02/16 08:02:14;;;;;;;30.70;6.67;;;10.20;99.90;;;;;;6268446;22;20180;-82
2022/02/16 08:04:42;;;;;;;31.93;6.30;;;10.20;99.90;;;;;;6268491;22;20168;-80
2022/02/16 08:07:09;;;;;;;43.63;8.77;;;10.10;99.90;;;;;;6268877;22;20172;-83
2022/02/16 08:09:36;;;;;;;41.40;6.50;;;10.20;99.90;;;;;;6267558;22;20200;-82
2022/02/16 08:12:03;;;;;;;38.57;6.57;;;10.20;99.90;;;;;;6267687;22;20188;-80
2022/02/16 08:14:33;;;;;;;33.87;7.33;;;10.20;99.90;;;;;;6270537;22;20184;-82
2022/02/16 08:17:01;;;;;;;37.90;8.20;;;10.20;99.90;;;;;;6268550;22;20906;-83
2022/02/16 08:19:28;;;;;;;47.73;9.20;;;10.20;99.90;;;;;;6269546;22;20176;-82
2022/02/16 08:21:57;;;;;;;51.77;9.53;;;10.30;99.90;;;;;;6268869;22;20184;-81
2022/02/16 08:24:25;;;;;;;51.23;10.00;;;10.20;99.90;;;;;;6267445;22;20180;-81
2022/02/16 08:26:52;;;;;;;46.83;11.47;;;10.20;99.90;;;;;;6267328;22;20509;-80
2022/02/16 08:29:19;;;;;;;43.37;9.70;;;10.20;99.90;;;;;;6267020;22;20211;-80
2022/02/16 08:31:46;;;;;;;39.77;8.87;;;10.20;99.90;;;;;;6267207;22;20184;-80
2022/02/16 08:34:14;;;;;;;48.57;10.40;;;10.20;99.90;;;;;;6266404;22;20574;-81
2022/02/16 08:36:40;;;;;;;45.13;9.47;;;10.20;99.90;;;;;;6265385;22;20180;-83
2022/02/16 08:39:09;;;;;;;47.57;9.80;;;10.20;99.90;;;;;;6266714;22;20192;-82
2022/02/16 08:41:37;;;;;;;39.30;10.40;;;10.30;99.90;;;;;;6267232;22;20169;-81
2022/02/16 08:44:04;;;;;;;45.13;11.10;;;10.30;99.90;;;;;;6266722;22;20172;-80
2022/02/16 08:46:31;;;;;;;37.57;7.53;;;10.40;99.90;;;;;;6267711;22;20184;-81
2022/02/16 08:49:01;;;;;;;41.23;9.40;;;10.50;99.90;;;;;;6267293;22;20172;-80
2022/02/16 08:51:28;;;;;;;33.97;8.23;;;10.50;99.90;;;;;;6266068;22;20259;-82
2022/02/16 08:53:55;;;;;;;37.03;7.50;;;10.60;99.90;;;;;;6266537;22;20513;-79
2022/02/16 08:56:24;;;;;;;41.97;8.73;;;10.60;99.90;;;;;;6265655;22;20177;-81
2022/02/16 08:58:50;;;;;;;41.20;7.80;;;10.70;99.90;;;;;;6266722;22;20451;-82
2022/02/16 09:01:17;;;;;;;31.30;7.67;;;10.70;99.90;;;;;;6266609;22;20569;-80
2022/02/16 09:03:44;;;;;;;43.87;6.87;;;10.70;99.90;;;;;;6266510;22;20177;-81
2022/02/16 09:06:11;;;;;;;33.17;8.60;;;10.70;99.90;;;;;;6266167;22;20211;-79
2022/02/16 09:08:38;;;;;;;36.00;7.33;;;10.80;99.90;;;;;;6266486;22;20756;-80
2022/02/16 09:11:05;;;;;;;32.87;6.57;;;10.80;99.90;;;;;;6264952;22;20772;-81
2022/02/16 09:13:33;;;;;;;31.37;6.47;;;10.90;99.90;;;;;;6266234;22;20165;-81
2022/02/16 09:16:01;;;;;;;31.83;7.80;;;10.90;99.90;;;;;;6265603;22;20179;-81
2022/02/16 09:18:28;;;;;;;31.93;6.77;;;10.90;99.90;;;;;;6265460;22;20201;-80
2022/02/16 09:20:54;;;;;;;33.60;6.33;;;10.90;99.90;;;;;;6266320;22;20197;-80
2022/02/16 09:23:21;;;;;;;32.30;6.93;;;11.00;99.90;;;;;;6267350;22;20692;-81
2022/02/16 09:25:48;;;;;;;32.33;6.67;;;11.00;99.90;;;;;;6266247;22;20161;-80
2022/02/16 09:28:15;;;;;;;31.33;6.07;;;11.10;99.90;;;;;;6265836;22;20184;-79
2022/02/16 09:30:43;;;;;;;34.50;7.37;;;11.20;99.90;;;;;;6266262;22;20190;-80
2022/02/16 09:33:10;;;;;;;33.90;7.17;;;11.20;99.90;;;;;;6265155;22;20222;-79
2022/02/16 09:35:36;;;;;;;35.63;6.60;;;11.20;99.90;;;;;;6265752;22;20176;-82
2022/02/16 09:38:03;;;;;;;32.30;6.83;;;11.20;99.90;;;;;;6265907;22;20199;-81
2022/02/16 09:40:31;;;;;;;35.27;7.50;;;11.30;99.90;;;;;;6266050;22;20171;-80
2022/02/16 09:43:01;;;;;;;44.20;9.00;;;11.30;99.90;;;;;;6265211;22;20172;-78
2022/02/16 09:45:30;;;;;;;35.03;7.60;;;11.30;99.90;;;;;;6265688;22;20175;-79
2022/02/16 09:47:59;;;;;;;34.63;7.73;;;11.30;99.90;;;;;;6264863;22;20306;-81
2022/02/16 09:50:26;;;;;;;39.00;6.70;;;11.40;99.90;;;;;;6265868;22;20173;-78
2022/02/16 09:52:53;;;;;;;33.63;7.63;;;11.40;99.90;;;;;;6265801;22;20172;-77
2022/02/16 09:55:19;;;;;;;28.97;6.20;;;11.40;99.90;;;;;;6265461;22;20187;-80
2022/02/16 09:57:46;;;;;;;34.67;7.53;;;11.40;99.90;;;;;;6264947;22;20192;-81
2022/02/16 10:00:15;;;;;;;38.70;8.00;;;11.40;99.90;;;;;;6264982;22;20173;-80
2022/02/16 10:02:44;;;;;;;28.10;7.03;;;11.30;99.90;;;;;;6264535;22;20191;-80
2022/02/16 10:05:13;;;;;;;38.37;7.30;;;11.30;99.90;;;;;;6264407;22;20573;-82
2022/02/16 10:07:42;;;;;;;30.73;6.70;;;11.30;99.90;;;;;;6264830;22;20187;-80
2022/02/16 10:10:15;;;;;;;29.37;6.33;;;11.30;99.90;;;;;;6265166;22;20204;-81
2022/02/16 10:12:44;;;;;;;28.70;7.43;;;11.30;99.90;;;;;;6266454;22;20180;-79
2022/02/16 10:15:12;;;;;;;30.73;8.23;;;11.20;99.90;;;;;;6264692;22;20181;-79
2022/02/16 10:17:40;;;;;;;31.77;8.37;;;11.20;99.90;;;;;;6265613;22;20232;-81
2022/02/16 10:20:09;;;;;;;29.50;7.77;;;11.20;99.90;;;;;;6266178;22;20226;-79
2022/02/16 10:22:42;;;;;;;34.07;9.03;;;11.20;99.90;;;;;;6264266;22;20643;-78
2022/02/16 10:25:12;;;;;;;36.43;7.73;;;11.10;99.90;;;;;;6263938;22;20208;-81
2022/02/16 10:27:39;;;;;;;39.00;8.60;;;11.10;99.90;;;;;;6265925;22;20188;-79
2022/02/16 10:30:15;;;;;;;38.33;8.07;;;11.10;99.90;;;;;;6263601;22;20189;-78
2022/02/16 10:32:42;;;;;;;34.27;7.57;;;11.10;99.90;;;;;;6264535;22;20258;-81
2022/02/16 10:35:09;;;;;;;37.10;9.20;;;11.10;99.90;;;;;;6264779;22;20191;-79
2022/02/16 10:37:38;;;;;;;38.93;8.23;;;11.10;99.90;;;;;;6264715;22;20204;-80
2022/02/16 10:40:14;;;;;;;37.27;8.00;;;11.10;99.90;;;;;;6263635;22;20180;-80
2022/02/16 10:42:53;;;;;;;38.07;8.27;;;11.10;99.90;;;;;;6264380;22;20205;-81
2022/02/16 10:45:22;;;;;;;34.43;7.37;;;11.10;99.90;;;;;;6264068;22;20227;-81
2022/02/16 10:47:55;;;;;;;31.23;7.97;;;11.20;99.90;;;;;;6263315;22;20675;-79
2022/02/16 10:50:23;;;;;;;33.77;8.33;;;11.20;99.90;;;;;;6263998;22;20176;-80
2022/02/16 10:52:53;;;;;;;35.67;7.80;;;11.10;99.90;;;;;;6265525;22;20185;-77
2022/02/16 10:55:35;;;;;;;35.10;8.13;;;11.10;99.90;;;;;;6263693;22;20774;-79
2022/02/16 10:58:03;;;;;;;29.07;7.23;;;11.20;99.90;;;;;;6262698;22;20192;-81
2022/02/16 11:00:31;;;;;;;39.97;9.43;;;11.10;99.90;;;;;;6264807;22;20192;-80
2022/02/16 11:03:00;;;;;;;42.70;7.87;;;11.20;99.90;;;;;;6263551;22;20267;-79
2022/02/16 11:05:28;;;;;;;43.07;7.53;;;11.20;99.90;;;;;;6264039;22;20185;-81
2022/02/16 11:07:56;;;;;;;37.30;9.27;;;11.20;99.90;;;;;;6263829;22;20176;-80
2022/02/16 11:10:26;;;;;;;40.63;8.23;;;11.20;99.90;;;;;;6264112;22;20216;-78
2022/02/16 11:12:54;;;;;;;43.90;9.80;;;11.20;99.90;;;;;;6264089;22;20181;-79
2022/02/16 11:15:22;;;;;;;38.90;8.67;;;11.20;99.90;;;;;;6263910;22;20191;-81
2022/02/16 11:17:49;;;;;;;34.73;8.50;;;11.10;99.90;;;;;;6263913;22;20450;-77
2022/02/16 11:20:22;;;;;;;45.80;9.70;;;11.10;99.90;;;;;;6266246;22;20279;-77
2022/02/16 11:22:51;;;;;;;36.57;8.60;;;11.10;99.90;;;;;;6264591;22;20230;-78
2022/02/16 11:25:31;;;;;;;32.67;8.23;;;11.10;99.90;;;;;;6265855;22;20239;-80
2022/02/16 11:28:00;;;;;;;42.20;9.80;;;11.10;99.90;;;;;;6267870;22;20632;-76
2022/02/16 11:30:32;;;;;;;35.17;8.50;;;11.10;99.90;;;;;;6267487;22;20283;-78
2022/02/16 11:33:17;;;;;;;37.77;9.70;;;11.10;99.90;;;;;;6265721;22;20292;-79
2022/02/16 11:35:53;;;;;;;41.23;8.40;;;11.10;99.90;;;;;;6273747;22;20191;-78
2022/02/16 11:38:23;;;;;;;40.30;10.00;;;11.10;99.90;;;;;;6267719;22;20529;-78
2022/02/16 11:40:55;;;;;;;51.87;10.63;;;11.10;99.90;;;;;;6265132;22;20181;-78
2022/02/16 11:43:26;;;;;;;42.37;9.07;;;11.00;99.90;;;;;;6265255;22;20184;-80
2022/02/16 11:45:58;;;;;;;41.90;9.67;;;11.00;99.90;;;;;;6264715;22;20244;-78
2022/02/16 11:48:48;;;;;;;47.87;9.37;;;11.00;99.90;;;;;;6266533;22;20161;-79
2022/02/16 11:51:38;;;;;;;44.87;8.70;;;11.00;99.90;;;;;;6267120;22;20172;-80
2022/02/16 11:54:43;;;;;;;42.30;8.67;;;11.10;99.90;;;;;;6265241;22;20179;-80
2022/02/16 11:57:39;;;;;;;40.57;7.97;;;11.10;99.90;;;;;;6266610;22;20224;-79
2022/02/16 12:00:11;;;;;;;40.93;9.77;;;11.10;99.90;;;;;;6266430;22;20200;-80
2022/02/16 12:03:12;;;;;;;36.47;8.70;;;11.10;99.90;;;;;;6266732;22;20172;-79
2022/02/16 12:05:45;;;;;;;34.17;9.87;;;11.20;99.90;;;;;;6266033;22;20168;-80
2022/02/16 12:08:13;;;;;;;37.83;9.37;;;11.20;99.90;;;;;;6264315;22;20478;-80
2022/02/16 12:10:44;;;;;;;35.60;9.37;;;11.20;99.90;;;;;;6264891;22;20201;-80
2022/02/16 12:13:13;;;;;;;35.23;9.80;;;11.10;99.90;;;;;;6265305;22;20596;-80
2022/02/16 12:15:39;;;;;;;43.50;9.87;;;11.10;99.90;;;;;;6265497;22;20189;-82
2022/02/16 12:18:12;;;;;;;38.17;10.30;;;11.10;99.90;;;;;;6266544;22;20378;-79
2022/02/16 12:20:40;;;;;;;41.33;10.77;;;11.10;99.90;;;;;;6266498;22;20852;-81
2022/02/16 12:23:07;;;;;;;44.97;10.00;;;11.10;99.90;;;;;;6265149;22;20181;-81
2022/02/16 12:25:34;;;;;;;51.00;10.57;;;11.10;99.90;;;;;;6266409;22;20168;-79
2022/02/16 12:28:03;;;;;;;42.27;9.20;;;11.10;99.90;;;;;;6262778;22;20165;-79
2022/02/16 12:30:37;;;;;;;39.43;9.43;;;11.00;99.90;;;;;;6266370;22;20176;-80
2022/02/16 12:33:19;;;;;;;36.67;9.60;;;11.00;99.90;;;;;;6264657;22;20175;-79
2022/02/16 12:35:46;;;;;;;54.20;11.57;;;10.90;99.90;;;;;;6264627;22;20186;-80
2022/02/16 12:38:13;;;;;;;46.43;11.27;;;11.00;99.90;;;;;;6266426;22;20199;-79
2022/02/16 12:40:40;;;;;;;38.80;8.90;;;11.00;99.90;;;;;;6265967;22;20172;-79
2022/02/16 12:43:11;;;;;;;62.27;12.43;;;11.00;99.90;;;;;;6265194;22;20176;-79
2022/02/16 12:45:40;;;;;;;39.90;10.57;;;11.00;99.90;;;;;;6267150;22;20609;-78
2022/02/16 12:48:07;;;;;;;45.50;10.50;;;10.90;99.90;;;;;;6266736;22;20426;-78